METAR

METAR

SAPL62 EPRA 241730
METAR EPRA 241730Z 03010KT 9999 SCT016 BKN025 M10/M15 Q1026=

TAF

TAF

FCPL62 EPRA 241700
TAF EPRA 241730Z 2418/2503 04008KT 9999 BKN025
PROB40 TEMPO 2418/2421 7000 -SHSN BKN014CB=

Witamy na stronie Radom Meteo

zawsze aktualna prognoza dla pilotów 

Czym się zajmujemy

W zakresie osłony meteorologicznej realizujemy:

  • wykonywanie pomiarów i obserwacji meteorologicznych;
  • przygotowane prognoz meteorologicznych;
  • opracowywanie ostrzeżeń meteorologicznych;
  • informowanie o warunkach meteorologicznych;
  • dystrybucję informacji meteorologicznych;
  • opracowywanie danych klimatycznych.